Airfield :
LOGIN :

Register | Disclaimer

   EN    FR    IT 

 










Legend :    VFR   Marginal VFR   IFR   Intensive IFR   Very Intensive IFR
Visi :
Ceiling :
>= 8 km
>= 3000ft
5 to 8 km
1000 to 3000 ft
1500m to 5 km
500 to 1000 ft
800 to 1500m
200 to 500 ft
< 800m
< 200 ft
Symbols :   Thunderstorms  Fog  Heavy snow  Heavy precipitations  Wind > 20 kt
SIGMETs :     Misc.  Thunderstorms  Icing  Turbulence  Mountain Waves  Volcanic Ashes






- Airport Elevation : 325 ft
- IATA code : BES


LFRB - Brest

CURRENT METAR :
  • 110200Z AUTO 23004KT 9999 FEW035 04/03 Q1014 BECMG 22015G25KT

EXPIRED METARs :
  • 110130Z AUTO 26004KT 9999 FEW034 04/02 Q1014 BECMG 22015G25KT
  • 110100Z AUTO 26005KT 9999 FEW034 SCT043 04/02 Q1014 NOSIG
  • 110030Z AUTO 28005KT 9999 SCT035 05/03 Q1014 NOSIG
  • 110000Z AUTO 28005KT 9999 FEW036 06/03 Q1014 NOSIG
  • 102330Z AUTO 29006KT 9999 FEW034 SCT044 07/04 Q1014 NOSIG

TAF TAF LFRB
Valid from the 11 at 00:00 until the 12 at 06:00 UTC


102300Z 1100/1206 29006KT 9999 SCT025
BECMG 1103/1106 22015G25KT
TEMPO 1106/1118 29012G25KT 4000 SHRA SCT015CB BKN025
PROB40
TEMPO 1107/1112 TSRAGS BKN012CB
BECMG 1118/1121 28008KT
BECMG 1200/1203 20012G22KT
TEMPO 1203/1206 SHRA BKN012CB
ATIS : +33 2 98 32 02 71



MET'MAP, your aeronautical weather chart ! - Copyright ORBIFLY December 2007 - Disclaimer

ORBIFLY MET'MAP TEAM :

Programming & Development : Alexandra Zaïnal
Concept & original design : Baudouin d'Aumeries
Assistance for programming : Marc-Olivier Méhu
Technical & hardware support : Manuel Goepfert

Contact : metmap@orbifly.com




SOURCES & CREDITS :

   NOAA